Time;durP1;ratioP1;P1;durP2;ratioP2;P2;SDS_P1;SDS_P2;PMS_P1;PMS_P2;Temp;Humidity;BMP_temperature;BMP_pressure;BME280_temperature;BME280_humidity;BME280_pressure;Samples;Min_cycle;Max_cycle;Signal;HPM_P1;HPM_P2
2023/05/16 00:04:12;;;;;;;6.60;6.00;;;;;;;11.56;82.11;99031.11;218714;1258;139752;-66
2023/05/16 00:09:17;;;;;;;6.00;5.50;;;;;;;11.47;82.14;99026.51;218039;1257;140694;-66
2023/05/16 00:14:25;;;;;;;9.00;6.60;;;;;;;11.43;82.44;99023.65;218723;1257;139702;-67
2023/05/16 00:19:31;;;;;;;8.00;7.20;;;;;;;11.42;82.51;99023.48;218210;1260;140504;-66
2023/05/16 00:24:36;;;;;;;7.20;6.10;;;;;;;11.38;82.47;99023.93;218150;1257;139884;-66
2023/05/16 00:29:41;;;;;;;7.60;6.80;;;;;;;11.30;82.51;99029.34;218575;1260;140962;-67
2023/05/16 00:34:47;;;;;;;7.40;6.40;;;;;;;11.26;82.71;99036.57;218607;1257;139667;-66
2023/05/16 00:39:52;;;;;;;8.90;6.80;;;;;;;11.24;83.15;99041.20;218039;1260;140549;-67
2023/05/16 00:44:56;;;;;;;9.00;8.20;;;;;;;11.22;83.08;99043.53;217996;1260;139943;-68
2023/05/16 00:50:02;;;;;;;7.20;5.50;;;;;;;11.18;83.18;99047.75;218276;1259;140544;-68
2023/05/16 00:55:09;;;;;;;8.70;6.70;;;;;;;11.13;83.39;99045.38;219119;1260;233061;-66
2023/05/16 01:00:15;;;;;;;;;;;;;;;11.10;83.52;99043.31;219029;1259;140898;-65
2023/05/16 01:05:20;;;;;;;10.00;7.60;;;;;;;11.07;83.79;99043.23;220217;1257;126200;-66
2023/05/16 01:10:31;;;;;;;11.60;9.00;;;;;;;11.09;83.94;99044.11;220559;1257;141659;-67
2023/05/16 01:15:46;;;;;;;9.70;8.20;;;;;;;11.10;84.00;99042.20;220762;1256;140432;-67
2023/05/16 01:21:16;;;;;;;14.30;8.20;;;;;;;11.11;84.00;99044.60;220396;1256;141650;-68
2023/05/16 01:26:24;;;;;;;9.10;8.30;;;;;;;11.10;83.83;99045.61;218347;1258;139831;-66
2023/05/16 01:31:28;;;;;;;9.70;8.70;;;;;;;11.05;83.58;99043.48;220109;1257;139750;-68
2023/05/16 01:37:07;;;;;;;10.40;8.30;;;;;;;10.98;83.72;99036.83;218498;1258;142247;-70
2023/05/16 01:42:15;;;;;;;12.90;8.50;;;;;;;10.89;83.88;99040.16;219501;1256;140372;-76
2023/05/16 01:47:25;;;;;;;10.10;8.70;;;;;;;10.82;83.92;99046.55;219131;1257;140079;-67
2023/05/16 01:52:45;;;;;;;9.80;7.90;;;;;;;10.75;84.02;99050.32;217961;1257;139745;-71
2023/05/16 01:57:52;;;;;;;8.80;8.00;;;;;;;10.67;84.00;99049.57;218624;1257;140230;-67
2023/05/16 02:02:57;;;;;;;9.90;8.20;;;;;;;10.62;84.18;99049.98;218038;1256;140746;-69
2023/05/16 02:08:01;;;;;;;11.10;8.70;;;;;;;10.55;84.40;99053.42;218460;1257;139951;-66
2023/05/16 02:13:05;;;;;;;9.50;8.40;;;;;;;10.49;84.42;99053.63;218109;1259;140668;-68
2023/05/16 02:18:11;;;;;;;10.10;9.10;;;;;;;10.40;84.26;99052.33;218581;1256;140273;-68
2023/05/16 02:23:17;;;;;;;12.00;9.10;;;;;;;10.35;84.46;99049.23;217979;1257;140688;-68
2023/05/16 02:28:21;;;;;;;12.70;10.00;;;;;;;10.26;84.51;99046.04;218825;1257;141208;-67
2023/05/16 02:33:27;;;;;;;8.90;8.00;;;;;;;10.22;84.67;99046.40;218831;1257;140982;-68
2023/05/16 02:38:31;;;;;;;9.80;9.00;;;;;;;10.18;84.59;99043.83;218544;1254;139622;-67
2023/05/16 02:43:36;;;;;;;11.30;10.20;;;;;;;10.17;84.64;99050.73;219791;1257;141512;-67
2023/05/16 02:48:40;;;;;;;10.60;9.00;;;;;;;10.17;84.51;99047.06;219572;1257;139781;-67
2023/05/16 02:53:45;;;;;;;13.50;10.40;;;;;;;10.16;84.48;99048.13;220096;1257;140621;-68
2023/05/16 02:58:50;;;;;;;13.50;9.10;;;;;;;10.14;84.34;99055.27;219809;1257;139921;-67
2023/05/16 03:03:55;;;;;;;10.30;9.30;;;;;;;10.15;84.30;99066.59;220710;1256;141396;-68
2023/05/16 03:08:59;;;;;;;15.30;8.60;;;;;;;10.18;84.13;99071.75;220310;1256;141900;-67
2023/05/16 03:14:04;;;;;;;11.00;7.30;;;;;;;10.22;84.03;99066.96;218886;1257;139995;-67
2023/05/16 03:19:09;;;;;;;9.10;8.10;;;;;;;10.26;83.84;99072.52;220114;1254;140023;-68
2023/05/16 03:24:14;;;;;;;10.60;9.50;;;;;;;10.32;83.76;99078.92;218912;1254;449806;-68
2023/05/16 03:29:19;;;;;;;9.60;8.60;;;;;;;10.42;83.65;99087.23;218468;1257;140349;-67
2023/05/16 03:34:23;;;;;;;9.20;8.30;;;;;;;10.54;83.76;99089.17;218201;1258;139620;-68
2023/05/16 03:39:27;;;;;;;9.60;8.60;;;;;;;10.63;83.49;99092.82;219228;1254;139939;-68
2023/05/16 03:44:32;;;;;;;8.70;7.80;;;;;;;10.75;83.24;99102.26;218836;1254;140012;-67
2023/05/16 03:49:37;;;;;;;7.90;7.10;;;;;;;11.12;82.82;99105.17;219848;1254;139884;-68
2023/05/16 03:54:41;;;;;;;9.10;8.20;;;;;;;11.45;82.37;99106.83;218877;1254;139803;-67
2023/05/16 03:59:45;;;;;;;11.30;9.60;;;;;;;11.43;81.88;99119.77;218030;1254;139657;-67
2023/05/16 04:04:50;;;;;;;12.60;10.10;;;;;;;11.55;81.75;99127.25;218326;1254;140487;-68
2023/05/16 04:09:54;;;;;;;10.50;9.40;;;;;;;11.87;81.24;99132.73;219030;1254;140082;-68
2023/05/16 04:14:58;;;;;;;10.30;8.90;;;;;;;12.16;80.92;99135.77;218550;1254;139764;-67
2023/05/16 04:20:04;;;;;;;10.60;9.30;;;;;;;12.65;80.35;99149.72;218757;1254;140526;-67
2023/05/16 04:25:10;;;;;;;8.90;8.00;;;;;;;13.44;78.96;99148.87;219287;1254;140029;-67
2023/05/16 04:30:14;;;;;;;8.90;8.10;;;;;;;13.58;78.32;99163.95;218524;1254;139649;-67
2023/05/16 04:35:21;;;;;;;8.00;7.20;;;;;;;13.38;77.91;99187.44;219111;1254;139296;-67
2023/05/16 04:40:26;;;;;;;8.70;7.80;;;;;;;13.28;77.74;99192.13;219162;1254;140025;-67
2023/05/16 04:45:31;;;;;;;8.90;8.10;;;;;;;13.91;77.04;99199.77;219347;1254;139703;-67
2023/05/16 04:50:38;;;;;;;8.20;7.40;;;;;;;14.00;76.70;99207.80;217960;1254;139765;-67
2023/05/16 04:55:43;;;;;;;8.00;7.30;;;;;;;14.23;76.57;99206.58;220678;1254;141521;-67
2023/05/16 05:00:47;;;;;;;8.30;7.50;;;;;;;14.28;76.18;99195.63;220188;1254;140413;-68
2023/05/16 05:05:51;;;;;;;7.00;6.40;;;;;;;14.32;75.91;99183.55;218882;1254;139930;-67
2023/05/16 05:10:56;;;;;;;10.10;8.10;;;;;;;14.31;75.69;99195.04;220530;1254;140050;-67
2023/05/16 05:16:03;;;;;;;11.00;8.20;;;;;;;14.11;75.51;99208.84;218342;1254;140434;-67
2023/05/16 05:21:08;;;;;;;10.70;9.70;;;;;;;13.97;75.80;99216.85;218738;1255;140353;-68
2023/05/16 05:26:13;;;;;;;11.40;10.30;;;;;;;13.79;76.00;99224.41;218415;1254;140459;-67
2023/05/16 05:31:18;;;;;;;11.90;10.80;;;;;;;13.63;76.07;99236.24;219139;1254;140497;-67
2023/05/16 05:36:24;;;;;;;11.90;10.80;;;;;;;13.46;75.93;99241.47;218601;1254;140213;-67
2023/05/16 05:41:29;;;;;;;10.10;9.20;;;;;;;13.29;75.92;99255.15;218866;1254;140408;-67
2023/05/16 05:46:34;;;;;;;13.40;10.90;;;;;;;13.16;76.04;99276.93;218412;1254;140421;-67
2023/05/16 05:51:40;;;;;;;14.40;9.90;;;;;;;13.00;76.15;99293.92;219641;1255;141102;-67
2023/05/16 05:56:45;;;;;;;9.50;8.80;;;;;;;12.86;76.22;99309.21;218118;1257;140792;-67
2023/05/16 06:01:52;;;;;;;10.70;9.70;;;;;;;12.79;76.72;99319.89;218104;1259;140642;-67
2023/05/16 06:06:58;;;;;;;8.70;7.90;;;;;;;12.80;76.98;99325.89;217969;1254;140043;-67
2023/05/16 06:12:03;;;;;;;8.70;7.80;;;;;;;12.86;77.06;99328.89;218698;1256;139940;-67
2023/05/16 06:17:08;;;;;;;8.00;7.40;;;;;;;12.96;76.98;99329.38;218622;1256;139625;-67
2023/05/16 06:22:13;;;;;;;6.90;6.30;;;;;;;13.31;76.33;99324.42;218525;1257;139692;-67
2023/05/16 06:27:18;;;;;;;8.00;7.30;;;;;;;13.52;76.10;99329.89;218543;1257;139649;-67
2023/05/16 06:32:23;;;;;;;5.50;5.10;;;;;;;13.91;75.65;99335.34;219374;1256;139611;-68
2023/05/16 06:37:28;;;;;;;8.90;7.60;;;;;;;14.44;75.39;99340.98;218012;1257;223207;-67
2023/05/16 06:42:33;;;;;;;8.70;7.90;;;;;;;14.94;74.98;99348.01;217871;1259;209974;-67
2023/05/16 06:47:38;;;;;;;6.90;6.20;;;;;;;15.40;73.75;99344.36;219151;1256;139714;-68
2023/05/16 06:52:42;;;;;;;6.00;5.50;;;;;;;16.08;73.30;99346.77;220390;1256;140637;-68
2023/05/16 06:57:46;;;;;;;4.70;4.30;;;;;;;17.03;71.96;99362.95;220526;1256;141233;-68
2023/05/16 07:02:51;;;;;;;5.70;5.20;;;;;;;17.72;70.30;99369.46;220460;1256;140258;-68
2023/05/16 07:07:56;;;;;;;4.10;3.80;;;;;;;18.03;69.31;99382.67;220418;1256;140051;-68
2023/05/16 07:13:03;;;;;;;4.50;4.20;;;;;;;18.20;68.22;99391.70;220267;1254;138902;-68
2023/05/16 07:18:09;;;;;;;4.30;3.70;;;;;;;18.66;68.17;99402.84;218071;1254;139846;-67
2023/05/16 07:23:13;;;;;;;5.70;4.00;;;;;;;18.99;66.88;99412.98;219347;1254;139455;-67
2023/05/16 07:28:18;;;;;;;4.40;4.00;;;;;;;18.67;65.72;99410.19;218515;1254;139744;-68
2023/05/16 07:33:23;;;;;;;3.20;3.00;;;;;;;18.94;65.92;99411.44;218903;1254;139262;-67
2023/05/16 07:38:28;;;;;;;3.70;3.40;;;;;;;19.04;65.14;99416.79;218148;1254;139234;-67
2023/05/16 07:43:34;;;;;;;3.60;3.40;;;;;;;19.17;64.92;99417.55;218497;1254;139281;-67
2023/05/16 07:48:38;;;;;;;3.20;3.00;;;;;;;19.08;63.93;99417.31;219002;1254;139022;-68
2023/05/16 07:53:43;;;;;;;3.20;3.00;;;;;;;19.19;64.28;99415.64;218961;1254;138749;-67
2023/05/16 07:58:47;;;;;;;3.10;2.90;;;;;;;19.78;64.04;99407.73;218304;1254;140314;-67
2023/05/16 08:03:52;;;;;;;3.30;3.10;;;;;;;20.10;63.30;99411.36;218774;1254;139695;-68
2023/05/16 08:08:57;;;;;;;3.00;2.70;;;;;;;20.34;62.44;99412.97;218406;1256;139861;-68
2023/05/16 08:14:02;;;;;;;3.10;2.90;;;;;;;20.67;61.82;99410.20;218104;1256;139013;-68
2023/05/16 08:19:07;;;;;;;3.30;3.00;;;;;;;20.88;61.13;99408.56;219270;1255;138974;-68
2023/05/16 08:24:12;;;;;;;;;;;;;;;20.95;60.78;99409.46;218921;1257;139949;-68
2023/05/16 08:29:20;;;;;;;2.50;2.40;;;;;;;21.21;60.31;99411.29;219788;1256;126476;-68
2023/05/16 08:34:25;;;;;;;2.50;2.30;;;;;;;21.38;59.81;99409.30;218114;1259;139126;-68
2023/05/16 08:39:30;;;;;;;2.30;2.10;;;;;;;21.53;58.88;99406.88;218042;1255;139164;-67
2023/05/16 08:44:35;;;;;;;4.70;2.50;;;;;;;21.62;58.71;99407.43;220318;1255;138944;-68
2023/05/16 08:49:49;;;;;;;10.30;2.20;;;;;;;21.71;58.12;99414.74;220173;1256;139566;-68
2023/05/16 08:54:59;;;;;;;1.90;1.70;;;;;;;21.79;57.09;99419.20;218032;1257;139290;-67
2023/05/16 09:00:14;;;;;;;1.60;1.50;;;;;;;21.85;56.81;99417.77;220764;1256;138995;-68
2023/05/16 09:05:21;;;;;;;2.00;1.90;;;;;;;21.80;56.41;99428.16;218996;1255;140069;-68
2023/05/16 09:10:26;;;;;;;2.00;1.90;;;;;;;21.88;56.18;99426.38;219391;1256;161583;-69
2023/05/16 09:15:32;;;;;;;3.20;1.80;;;;;;;22.02;56.25;99431.07;219903;1255;139726;-69
2023/05/16 09:20:45;;;;;;;2.10;2.00;;;;;;;22.04;55.48;99436.30;219167;1254;138829;-69
2023/05/16 09:25:52;;;;;;;2.40;2.20;;;;;;;21.97;55.34;99440.06;219572;1256;140963;-68
2023/05/16 09:31:01;;;;;;;2.90;2.60;;;;;;;22.01;55.18;99451.24;218640;1255;138847;-67
2023/05/16 09:36:07;;;;;;;3.50;1.90;;;;;;;21.94;54.26;99465.53;218287;1256;139139;-67
2023/05/16 09:41:12;;;;;;;1.70;1.70;;;;;;;21.96;54.37;99479.23;218967;1255;139894;-67
2023/05/16 09:46:18;;;;;;;2.40;2.30;;;;;;;22.00;54.47;99487.67;218179;1259;138919;-68
2023/05/16 09:51:23;;;;;;;2.10;2.00;;;;;;;21.97;53.21;99497.75;218585;1257;139480;-67
2023/05/16 09:56:29;;;;;;;1.90;1.80;;;;;;;21.81;53.74;99502.87;218429;1257;139286;-67
2023/05/16 10:01:34;;;;;;;4.90;2.00;;;;;;;21.79;53.33;99512.88;218170;1259;138945;-67
2023/05/16 10:06:41;;;;;;;2.90;2.70;;;;;;;21.85;53.68;99523.54;218137;1257;139411;-68
2023/05/16 10:11:48;;;;;;;2.50;2.30;;;;;;;22.08;53.19;99520.79;218652;1257;139128;-68
2023/05/16 10:16:56;;;;;;;2.40;2.20;;;;;;;21.87;52.98;99520.61;219367;1256;139668;-68
2023/05/16 10:22:04;;;;;;;2.50;2.40;;;;;;;21.77;52.81;99518.81;219324;1259;139350;-67
2023/05/16 10:27:12;;;;;;;2.10;2.00;;;;;;;21.75;52.75;99524.45;220159;1255;139341;-67
2023/05/16 10:32:18;;;;;;;2.40;2.30;;;;;;;21.67;52.83;99532.18;217956;1257;139101;-67
2023/05/16 10:37:24;;;;;;;2.80;2.60;;;;;;;21.48;52.95;99542.34;219314;1256;139319;-67
2023/05/16 10:42:32;;;;;;;3.40;3.10;;;;;;;21.26;53.02;99546.96;218774;1256;139515;-67
2023/05/16 10:47:37;;;;;;;2.50;2.40;;;;;;;21.40;52.96;99544.82;220650;1256;139730;-68
2023/05/16 10:52:42;;;;;;;2.50;2.40;;;;;;;21.38;53.03;99552.05;220641;1256;139207;-70
2023/05/16 10:57:48;;;;;;;3.00;2.80;;;;;;;21.49;52.83;99564.83;220735;1255;139527;-68
2023/05/16 11:03:03;;;;;;;2.70;2.60;;;;;;;21.85;53.00;99559.52;220648;1255;139549;-68
2023/05/16 11:08:10;;;;;;;2.90;2.70;;;;;;;21.82;52.44;99566.88;218663;1259;140287;-68
2023/05/16 11:13:23;;;;;;;3.30;3.00;;;;;;;21.90;52.26;99569.66;218870;1257;139652;-67
2023/05/16 11:18:32;;;;;;;1.80;1.70;;;;;;;21.60;52.11;99571.91;218238;1256;139992;-68
2023/05/16 11:23:37;;;;;;;3.20;3.00;;;;;;;21.50;52.17;99567.67;218410;1256;138940;-68
2023/05/16 11:28:42;;;;;;;3.10;2.90;;;;;;;21.96;52.21;99551.73;218543;1259;139729;-66
2023/05/16 11:33:47;;;;;;;2.60;2.40;;;;;;;22.35;52.26;99548.54;217929;1256;139043;-67
2023/05/16 11:38:52;;;;;;;2.30;2.20;;;;;;;22.48;51.42;99540.23;218335;1257;141603;-67
2023/05/16 11:43:57;;;;;;;2.40;2.30;;;;;;;22.71;51.58;99538.51;218871;1256;139973;-68
2023/05/16 11:49:03;;;;;;;2.50;2.40;;;;;;;22.97;50.87;99538.83;218414;1257;139624;-67
2023/05/16 11:54:14;;;;;;;3.00;2.80;;;;;;;23.22;50.30;99549.55;218082;1255;139758;-67
2023/05/16 11:59:20;;;;;;;2.50;2.20;;;;;;;23.34;49.91;99545.20;219524;1257;140200;-68
2023/05/16 12:04:27;;;;;;;2.60;2.40;;;;;;;23.31;49.87;99550.42;217928;1257;139152;-67
2023/05/16 12:09:32;;;;;;;3.20;2.40;;;;;;;23.33;49.35;99549.75;218721;1258;140049;-67
2023/05/16 12:14:37;;;;;;;2.70;2.50;;;;;;;23.34;49.27;99545.01;218318;1257;139400;-68
2023/05/16 12:19:42;;;;;;;2.40;2.30;;;;;;;23.30;48.71;99547.42;218795;1255;139050;-68
2023/05/16 12:24:47;;;;;;;3.60;3.30;;;;;;;23.17;48.39;99546.41;218123;1259;139507;-67
2023/05/16 12:29:53;;;;;;;2.50;2.30;;;;;;;23.17;48.65;99547.90;219375;1257;139351;-69
2023/05/16 12:35:01;;;;;;;2.90;2.80;;;;;;;23.27;48.69;99553.11;219740;1256;141596;-69
2023/05/16 12:40:11;;;;;;;3.50;3.20;;;;;;;23.31;48.24;99559.73;220591;1259;139436;-72
2023/05/16 12:45:17;;;;;;;3.00;2.80;;;;;;;23.30;48.12;99559.52;219365;1259;139659;-71
2023/05/16 12:50:25;;;;;;;3.40;3.10;;;;;;;23.17;47.52;99556.51;220663;1257;140395;-68
2023/05/16 12:55:31;;;;;;;3.00;2.70;;;;;;;22.87;47.35;99552.91;218947;1257;139182;-68
2023/05/16 13:00:37;;;;;;;2.90;2.40;;;;;;;22.75;47.94;99553.27;220664;1256;141360;-68
2023/05/16 13:05:43;;;;;;;2.50;2.40;;;;;;;22.70;48.27;99559.43;220658;1257;140846;-70
2023/05/16 13:10:51;;;;;;;3.00;2.80;;;;;;;22.60;48.22;99566.50;218405;1257;138818;-67
2023/05/16 13:15:55;;;;;;;2.30;2.20;;;;;;;22.52;48.09;99564.45;218627;1257;139798;-66
2023/05/16 13:21:00;;;;;;;2.50;2.30;;;;;;;22.43;48.14;99562.64;218243;1257;139245;-65
2023/05/16 13:26:04;;;;;;;4.70;3.00;;;;;;;22.43;48.10;99564.34;220006;1257;139448;-63
2023/05/16 13:31:09;;;;;;;3.30;3.00;;;;;;;22.43;48.11;99566.89;219562;1256;139213;-66
2023/05/16 13:36:14;;;;;;;4.00;2.80;;;;;;;22.40;48.22;99570.30;217874;1257;140173;-67
2023/05/16 13:41:18;;;;;;;2.80;2.60;;;;;;;22.33;48.13;99564.25;218415;1257;139245;-69
2023/05/16 13:46:25;;;;;;;2.90;2.70;;;;;;;22.25;48.18;99558.52;217832;1255;139237;-67
2023/05/16 13:51:30;;;;;;;3.70;3.30;;;;;;;22.26;48.68;99553.30;218557;1257;139747;-67
2023/05/16 13:56:36;;;;;;;3.80;3.20;;;;;;;22.16;48.27;99550.48;218767;1257;140575;-65
2023/05/16 14:01:44;;;;;;;2.90;2.70;;;;;;;22.00;48.41;99547.77;218590;1257;140344;-67
2023/05/16 14:06:50;;;;;;;3.10;2.90;;;;;;;21.90;48.53;99542.61;218570;1257;139799;-64
2023/05/16 14:11:55;;;;;;;4.60;3.50;;;;;;;21.99;48.90;99541.28;217829;1257;138976;-64
2023/05/16 14:17:02;;;;;;;3.80;3.20;;;;;;;22.00;49.08;99538.55;218635;1257;139523;-67
2023/05/16 14:22:09;;;;;;;3.30;3.10;;;;;;;22.00;48.17;99544.11;218314;1256;139808;-68
2023/05/16 14:27:15;;;;;;;3.50;3.30;;;;;;;22.02;48.53;99548.54;219781;1256;139106;-67
2023/05/16 14:32:19;;;;;;;;;;;;;;;22.00;48.11;99549.77;218885;1257;140427;-65
2023/05/16 14:37:27;;;;;;;3.90;2.80;;;;;;;21.90;47.98;99550.49;219227;1255;126820;-67
2023/05/16 14:42:31;;;;;;;3.40;3.20;;;;;;;21.87;48.42;99548.35;219385;1256;152796;-68
2023/05/16 14:47:36;;;;;;;3.20;3.00;;;;;;;21.81;48.68;99546.12;220497;1255;139646;-66
2023/05/16 14:52:40;;;;;;;3.50;3.20;;;;;;;21.73;48.58;99547.61;220390;1256;140206;-64
2023/05/16 14:57:48;;;;;;;3.30;3.00;;;;;;;21.66;48.54;99550.11;220320;1256;139006;-65
2023/05/16 15:03:02;;;;;;;3.10;2.90;;;;;;;21.47;48.45;99552.61;218855;1257;139075;-65
2023/05/16 15:08:08;;;;;;;;;;;;;;;21.34;48.86;99555.20;219097;1259;138892;-65
2023/05/16 15:13:14;;;;;;;3.40;2.90;;;;;;;21.38;49.37;99553.88;219632;1256;125263;-69
2023/05/16 15:18:23;;;;;;;3.30;3.10;;;;;;;21.45;49.41;99552.23;217890;1259;140290;-68
2023/05/16 15:23:29;;;;;;;3.60;3.20;;;;;;;21.41;49.35;99552.29;218671;1257;570799;-69
2023/05/16 15:28:36;;;;;;;3.80;3.50;;;;;;;21.44;49.90;99551.05;218302;1257;139771;-67
2023/05/16 15:33:43;;;;;;;3.40;2.90;;;;;;;21.49;49.84;99550.66;218066;1257;139146;-67
2023/05/16 15:38:51;;;;;;;3.40;3.20;;;;;;;21.31;49.77;99551.14;218183;1259;139021;-68
2023/05/16 15:43:55;;;;;;;3.30;3.10;;;;;;;21.03;49.88;99547.30;218750;1255;138930;-65
2023/05/16 15:49:00;;;;;;;5.40;3.40;;;;;;;20.80;50.42;99545.08;218518;1257;139288;-65
2023/05/16 15:54:07;;;;;;;4.60;3.00;;;;;;;20.68;50.41;99543.59;218409;1259;139620;-66
2023/05/16 15:59:13;;;;;;;5.50;3.30;;;;;;;20.48;50.33;99540.84;217821;1257;139088;-64
2023/05/16 16:04:17;;;;;;;6.20;3.20;;;;;;;20.29;50.94;99541.38;217967;1255;141234;-65
2023/05/16 16:09:26;;;;;;;3.50;3.20;;;;;;;20.09;51.34;99540.66;218558;1256;139579;-64
2023/05/16 16:14:31;;;;;;;3.30;3.10;;;;;;;19.90;51.61;99542.23;218563;1259;139962;-64
2023/05/16 16:19:36;;;;;;;4.10;3.80;;;;;;;19.77;52.09;99535.84;217917;1257;139943;-66
2023/05/16 16:24:40;;;;;;;3.60;3.30;;;;;;;19.63;52.64;99539.02;218059;1254;139231;-68
2023/05/16 16:29:46;;;;;;;;;;;;;;;19.51;53.02;99538.00;220671;1257;139390;-68
2023/05/16 16:34:51;;;;;;;3.40;3.20;;;;;;;19.36;53.07;99541.48;219258;1257;126734;-66
2023/05/16 16:39:57;;;;;;;3.70;3.40;;;;;;;19.29;53.26;99545.39;220216;1257;139674;-67
2023/05/16 16:45:04;;;;;;;3.40;3.20;;;;;;;19.24;53.31;99554.45;220566;1257;139832;-68
2023/05/16 16:50:11;;;;;;;3.70;3.50;;;;;;;19.13;53.40;99556.09;220674;1257;139373;-68
2023/05/16 16:55:15;;;;;;;5.60;3.40;;;;;;;19.05;53.62;99558.20;220584;1256;139188;-67
2023/05/16 17:00:24;;;;;;;7.90;3.70;;;;;;;18.96;53.74;99559.02;220230;1256;139532;-69
2023/05/16 17:05:30;;;;;;;6.80;3.90;;;;;;;18.86;54.30;99563.60;219420;1256;139921;-66
2023/05/16 17:10:39;;;;;;;4.60;4.10;;;;;;;18.75;54.25;99563.85;218596;1256;139658;-66
2023/05/16 17:15:46;;;;;;;3.60;3.30;;;;;;;18.62;54.44;99567.66;219042;1257;138976;-69
2023/05/16 17:20:52;;;;;;;5.90;4.80;;;;;;;18.50;54.80;99569.54;217410;1257;139436;-72
2023/05/16 17:25:58;;;;;;;;;;;;;;;18.40;55.30;99569.50;218862;1257;139863;-65
2023/05/16 17:31:05;;;;;;;5.60;5.10;;;;;;;18.28;56.28;99570.98;218663;1260;125639;-69
2023/05/16 17:36:10;;;;;;;5.20;4.80;;;;;;;18.18;57.23;99574.21;217859;1257;139440;-71
2023/05/16 17:41:16;;;;;;;10.50;6.90;;;;;;;18.06;57.83;99575.48;217752;1259;139049;-68
2023/05/16 17:46:22;;;;;;;11.50;8.80;;;;;;;17.95;58.45;99581.61;217506;1260;139152;-70
2023/05/16 17:51:28;;;;;;;9.60;8.30;;;;;;;17.81;59.18;99580.13;217784;1259;140021;-66
2023/05/16 17:56:33;;;;;;;10.40;8.70;;;;;;;17.68;59.38;99583.45;218191;1257;138868;-69
2023/05/16 18:01:39;;;;;;;8.50;7.50;;;;;;;17.57;59.65;99585.46;218036;1256;139329;-70
2023/05/16 18:06:47;;;;;;;8.00;7.20;;;;;;;17.47;59.91;99588.83;219240;1257;139007;-70
2023/05/16 18:11:53;;;;;;;5.90;5.40;;;;;;;17.36;60.54;99592.89;217953;1257;139933;-70
2023/05/16 18:16:58;;;;;;;6.10;5.50;;;;;;;17.25;61.17;99600.79;218546;1260;139547;-71
2023/05/16 18:22:07;;;;;;;8.40;5.20;;;;;;;17.12;61.99;99611.27;217927;1260;141526;-69
2023/05/16 18:27:12;;;;;;;5.20;4.80;;;;;;;16.94;62.73;99620.51;218797;1260;140715;-70
2023/05/16 18:32:19;;;;;;;5.60;5.20;;;;;;;16.77;63.58;99626.15;217713;1262;139884;-68
2023/05/16 18:37:25;;;;;;;5.40;4.90;;;;;;;16.59;64.58;99637.25;219688;1256;139894;-68
2023/05/16 18:42:31;;;;;;;9.00;6.50;;;;;;;16.42;65.25;99647.29;220373;1257;140377;-66
2023/05/16 18:47:37;;;;;;;14.60;6.10;;;;;;;16.29;65.94;99652.17;220298;1257;140057;-68
2023/05/16 18:52:45;;;;;;;7.00;6.50;;;;;;;16.12;66.69;99657.50;220514;1257;140667;-67
2023/05/16 18:57:57;;;;;;;6.20;5.70;;;;;;;16.02;67.16;99663.21;220052;1258;141147;-70
2023/05/16 19:03:05;;;;;;;8.00;6.90;;;;;;;15.83;67.61;99669.48;220423;1256;140210;-65
2023/05/16 19:08:12;;;;;;;7.80;7.10;;;;;;;15.64;68.31;99669.81;220432;1256;140530;-66
2023/05/16 19:13:18;;;;;;;8.80;7.50;;;;;;;15.54;69.11;99674.97;217736;1259;141356;-66
2023/05/16 19:18:23;;;;;;;9.00;8.20;;;;;;;15.42;69.49;99686.97;218067;1259;140056;-67
2023/05/16 19:23:29;;;;;;;10.30;9.40;;;;;;;15.34;70.05;99686.96;219603;1255;141287;-66
2023/05/16 19:28:33;;;;;;;12.60;11.40;;;;;;;15.19;70.38;99687.05;218775;1259;139948;-66
2023/05/16 19:33:39;;;;;;;13.20;11.20;;;;;;;15.14;70.84;99685.21;218145;1256;143092;-68
2023/05/16 19:38:47;;;;;;;12.40;11.20;;;;;;;15.13;71.19;99685.86;218553;1257;139882;-66
2023/05/16 19:43:54;;;;;;;13.90;11.70;;;;;;;15.05;71.44;99688.84;218791;1257;141762;-68
2023/05/16 19:48:58;;;;;;;13.50;11.90;;;;;;;15.03;71.92;99695.98;218456;1257;139933;-68
2023/05/16 19:54:03;;;;;;;13.60;11.80;;;;;;;15.01;72.14;99701.77;218476;1257;140583;-68
2023/05/16 19:59:08;;;;;;;10.50;9.30;;;;;;;14.92;72.39;99703.15;218430;1259;140275;-69
2023/05/16 20:04:14;;;;;;;18.10;14.20;;;;;;;14.82;72.80;99702.31;218222;1257;140507;-68
2023/05/16 20:09:20;;;;;;;12.20;9.90;;;;;;;14.72;73.26;99705.11;218034;1260;140143;-68
2023/05/16 20:14:26;;;;;;;14.30;12.80;;;;;;;14.64;73.51;99710.62;218373;1257;140868;-67
2023/05/16 20:19:32;;;;;;;13.10;11.60;;;;;;;14.59;73.78;99709.46;218744;1257;140589;-68
2023/05/16 20:24:36;;;;;;;13.90;12.60;;;;;;;14.50;74.11;99709.31;218669;1257;141176;-68
2023/05/16 20:29:41;;;;;;;13.90;12.60;;;;;;;14.47;74.42;99706.23;219215;1256;139993;-69
2023/05/16 20:34:46;;;;;;;15.70;13.30;;;;;;;14.45;74.73;99710.25;218806;1257;139865;-69
2023/05/16 20:39:52;;;;;;;14.40;13.00;;;;;;;14.44;74.88;99706.86;219056;1257;141491;-68
2023/05/16 20:44:59;;;;;;;16.20;13.60;;;;;;;14.41;75.17;99711.49;220396;1257;140194;-68
2023/05/16 20:50:05;;;;;;;18.40;14.70;;;;;;;14.38;75.42;99709.43;220176;1256;140342;-67
2023/05/16 20:55:11;;;;;;;15.20;13.70;;;;;;;14.37;75.52;99715.75;219713;1257;139980;-67
2023/05/16 21:00:16;;;;;;;15.90;14.30;;;;;;;14.35;75.68;99717.48;220508;1257;141785;-68
2023/05/16 21:05:21;;;;;;;16.40;14.30;;;;;;;14.34;75.75;99719.30;220397;1255;140475;-68
2023/05/16 21:10:30;;;;;;;15.80;14.00;;;;;;;14.34;75.88;99724.12;220697;1256;140048;-66
2023/05/16 21:15:37;;;;;;;15.50;13.80;;;;;;;14.31;76.05;99727.31;219458;1256;140455;-66
2023/05/16 21:20:42;;;;;;;17.10;15.40;;;;;;;14.27;76.27;99734.75;219280;1257;140137;-66
2023/05/16 21:25:47;;;;;;;19.30;15.10;;;;;;;14.26;76.44;99736.50;219570;1257;139925;-66
2023/05/16 21:30:53;;;;;;;16.70;15.00;;;;;;;14.21;76.68;99734.00;217878;1257;140532;-66
2023/05/16 21:35:59;;;;;;;18.40;15.60;;;;;;;14.13;76.94;99734.74;218575;1256;140430;-65
2023/05/16 21:41:05;;;;;;;20.90;16.40;;;;;;;14.03;77.07;99729.27;219106;1259;141514;-66
2023/05/16 21:46:10;;;;;;;15.30;13.70;;;;;;;13.95;77.36;99725.67;218687;1257;141030;-69
2023/05/16 21:51:15;;;;;;;18.60;15.20;;;;;;;13.87;77.36;99724.16;218346;1259;140688;-68
2023/05/16 21:56:21;;;;;;;20.30;16.00;;;;;;;13.79;77.69;99724.26;218246;1260;141657;-67
2023/05/16 22:01:28;;;;;;;24.00;19.80;;;;;;;13.72;77.96;99723.69;218661;1257;141037;-66
2023/05/16 22:06:32;;;;;;;18.20;16.00;;;;;;;13.66;78.42;99728.23;218333;1260;140151;-66
2023/05/16 22:11:40;;;;;;;20.70;17.20;;;;;;;13.61;78.41;99733.06;218089;1257;141367;-66
2023/05/16 22:16:45;;;;;;;21.00;16.70;;;;;;;13.56;78.67;99735.85;218146;1259;139916;-66
2023/05/16 22:21:50;;;;;;;17.90;15.00;;;;;;;13.49;78.56;99737.39;218177;1254;139889;-66
2023/05/16 22:26:56;;;;;;;25.50;17.70;;;;;;;13.41;78.53;99739.95;219532;1254;140064;-66
2023/05/16 22:32:00;;;;;;;19.90;15.40;;;;;;;13.34;78.81;99740.95;218923;1254;140231;-66
2023/05/16 22:37:06;;;;;;;24.00;16.70;;;;;;;13.25;78.59;99735.48;219025;1254;140775;-68
2023/05/16 22:42:10;;;;;;;17.50;15.00;;;;;;;13.18;78.89;99737.77;218680;1254;249959;-66
2023/05/16 22:47:15;;;;;;;20.30;17.00;;;;;;;13.11;79.10;99736.99;219016;1254;139861;-66
2023/05/16 22:52:20;;;;;;;19.50;15.10;;;;;;;13.07;79.40;99733.09;218462;1254;140472;-66
2023/05/16 22:57:25;;;;;;;18.60;16.00;;;;;;;13.00;79.48;99733.64;220622;1254;139920;-67
2023/05/16 23:02:30;;;;;;;21.30;16.30;;;;;;;12.97;79.77;99735.64;220872;1254;140625;-66
2023/05/16 23:07:34;;;;;;;17.80;14.60;;;;;;;12.93;79.73;99732.27;220707;1254;141166;-66
2023/05/16 23:12:38;;;;;;;21.90;16.00;;;;;;;12.90;79.84;99731.38;219387;1257;140121;-64
2023/05/16 23:17:44;;;;;;;19.60;16.40;;;;;;;12.88;79.83;99730.13;219365;1255;141738;-66
2023/05/16 23:22:48;;;;;;;17.60;15.30;;;;;;;12.88;80.10;99719.69;218575;1256;141158;-65